RYR159M EDDK-LEPA
Flight info
| Callsign | RYR159M |
|---|---|
| Flight time | 1h 47m |
| Altitude | 37000 |
| Route | NVO2K NVO Y868 NAVAK Z283 LNO DCT RASCA DCT FAMEN DCT AHVEC UN857 DISAK DCT DIRMO DCT VALKU DCT ATSUP DCT MINSO DCT DEGOL DCT PPG DCT ALBER DCT GIR DCT NENDA DCT KUREG DCT LORES LORE1P |
| Aircraft | A320/M-SDE3FGHIRWY/LB1 |
Departure
| Time | 2026-04-22 14:03 |
|---|---|
| Airport | Cologne Bonn Airport (EDDK) |
Arrival
| Time | 2026-04-22 15:50 |
|---|---|
| Airport | Palma de Mallorca Airport (LEPA) |
| Time | Latitude | Longitude | Altitude | Speed | Heading |
|---|---|---|---|---|---|
| 2026-04-22 13:48 | 50.87806 | 7.12402 | 233 ft | 0 kts | 288° |
| 2026-04-22 13:58 | 50.87801 | 7.12427 | 230 ft | 2 kts | 288° |
| 2026-04-22 13:58 | 50.87795 | 7.12454 | 231 ft | 3 kts | 288° |
| 2026-04-22 13:59 | 50.87789 | 7.12484 | 232 ft | 3 kts | 289° |
| 2026-04-22 13:59 | 50.87778 | 7.12516 | 230 ft | 3 kts | 347° |
| 2026-04-22 13:59 | 50.87763 | 7.12514 | 235 ft | 0 kts | 49° |
| 2026-04-22 13:59 | 50.87764 | 7.12516 | 232 ft | 2 kts | 49° |
| 2026-04-22 14:00 | 50.87799 | 7.12560 | 230 ft | 8 kts | 31° |
| 2026-04-22 14:00 | 50.87862 | 7.12596 | 230 ft | 11 kts | 15° |
| 2026-04-22 14:00 | 50.87941 | 7.12642 | 232 ft | 13 kts | 27° |
| 2026-04-22 14:00 | 50.87995 | 7.12748 | 234 ft | 12 kts | 66° |
| 2026-04-22 14:01 | 50.88012 | 7.12872 | 237 ft | 11 kts | 81° |
| 2026-04-22 14:01 | 50.87991 | 7.12989 | 239 ft | 12 kts | 138° |
| 2026-04-22 14:01 | 50.87965 | 7.13027 | 240 ft | 3 kts | 135° |
| 2026-04-22 14:01 | 50.87957 | 7.13040 | 240 ft | 1 kts | 135° |
| 2026-04-22 14:02 | 50.87950 | 7.13051 | 241 ft | 2 kts | 135° |
| 2026-04-22 14:02 | 50.87932 | 7.13078 | 241 ft | 16 kts | 136° |
| 2026-04-22 14:02 | 50.87660 | 7.13475 | 247 ft | 88 kts | 137° |
| 2026-04-22 14:02 | 50.87065 | 7.14341 | 257 ft | 141 kts | 137° |
| 2026-04-22 14:03 | 50.86230 | 7.15505 | 435 ft | 164 kts | 139° |
| 2026-04-22 14:03 | 50.85531 | 7.16374 | 1091 ft | 156 kts | 141° |
| 2026-04-22 14:03 | 50.84692 | 7.17415 | 1785 ft | 151 kts | 135° |
| 2026-04-22 14:03 | 50.83885 | 7.18568 | 2162 ft | 166 kts | 134° |
| 2026-04-22 14:04 | 50.82909 | 7.19762 | 2391 ft | 193 kts | 155° |
| 2026-04-22 14:04 | 50.81500 | 7.19854 | 2688 ft | 223 kts | 199° |
| 2026-04-22 14:04 | 50.80250 | 7.18244 | 3062 ft | 249 kts | 240° |
| 2026-04-22 14:04 | 50.79788 | 7.15565 | 3572 ft | 266 kts | 269° |
| 2026-04-22 14:05 | 50.79879 | 7.12617 | 4452 ft | 270 kts | 278° |
| 2026-04-22 14:05 | 50.80142 | 7.09665 | 5428 ft | 273 kts | 280° |
| 2026-04-22 14:05 | 50.80681 | 7.03570 | 7086 ft | 289 kts | 276° |
| 2026-04-22 14:06 | 50.80888 | 7.00373 | 7878 ft | 295 kts | 275° |
| 2026-04-22 14:06 | 50.81057 | 6.97110 | 8732 ft | 299 kts | 274° |
| 2026-04-22 14:06 | 50.81200 | 6.93806 | 9594 ft | 303 kts | 274° |
| 2026-04-22 14:06 | 50.81330 | 6.90457 | 10432 ft | 307 kts | 274° |
| 2026-04-22 14:07 | 50.81455 | 6.86986 | 10817 ft | 328 kts | 274° |
| 2026-04-22 14:07 | 50.81585 | 6.83276 | 11165 ft | 345 kts | 274° |
| 2026-04-22 14:07 | 50.81718 | 6.79451 | 11801 ft | 351 kts | 274° |
| 2026-04-22 14:07 | 50.81855 | 6.75577 | 12517 ft | 355 kts | 274° |
| 2026-04-22 14:08 | 50.81993 | 6.71680 | 13233 ft | 358 kts | 274° |
| 2026-04-22 14:08 | 50.82129 | 6.67726 | 13963 ft | 362 kts | 275° |
| 2026-04-22 14:08 | 50.82264 | 6.63737 | 14614 ft | 365 kts | 275° |
| 2026-04-22 14:08 | 50.82367 | 6.59701 | 15234 ft | 369 kts | 274° |
| 2026-04-22 14:09 | 50.82429 | 6.55619 | 15830 ft | 373 kts | 272° |
| 2026-04-22 14:09 | 50.82470 | 6.51496 | 16419 ft | 377 kts | 272° |
| 2026-04-22 14:09 | 50.82504 | 6.47326 | 17018 ft | 381 kts | 272° |
| 2026-04-22 14:09 | 50.82540 | 6.43117 | 17621 ft | 385 kts | 273° |
| 2026-04-22 14:10 | 50.82583 | 6.38864 | 18218 ft | 389 kts | 273° |
| 2026-04-22 14:10 | 50.82630 | 6.34567 | 18792 ft | 393 kts | 273° |
| 2026-04-22 14:10 | 50.82678 | 6.30227 | 19334 ft | 397 kts | 273° |
| 2026-04-22 14:10 | 50.82728 | 6.25848 | 19911 ft | 399 kts | 273° |
| 2026-04-22 14:11 | 50.82776 | 6.21441 | 20499 ft | 402 kts | 273° |
| 2026-04-22 14:11 | 50.82821 | 6.16999 | 21071 ft | 405 kts | 273° |
| 2026-04-22 14:11 | 50.82865 | 6.12527 | 21631 ft | 408 kts | 273° |
| 2026-04-22 14:11 | 50.82613 | 6.08043 | 22160 ft | 414 kts | 257° |
| 2026-04-22 14:12 | 50.81548 | 6.03804 | 22671 ft | 418 kts | 239° |
| 2026-04-22 14:12 | 50.79741 | 6.00280 | 23215 ft | 420 kts | 221° |
| 2026-04-22 14:12 | 50.77552 | 5.97206 | 23724 ft | 423 kts | 220° |
| 2026-04-22 14:12 | 50.75334 | 5.94135 | 24197 ft | 426 kts | 220° |
| 2026-04-22 14:13 | 50.73095 | 5.91053 | 24638 ft | 428 kts | 220° |
| 2026-04-22 14:13 | 50.70848 | 5.87963 | 25102 ft | 430 kts | 220° |
| 2026-04-22 14:13 | 50.68588 | 5.84850 | 25550 ft | 432 kts | 221° |
| 2026-04-22 14:13 | 50.66322 | 5.81720 | 25985 ft | 434 kts | 221° |
| 2026-04-22 14:14 | 50.64049 | 5.78578 | 26408 ft | 436 kts | 221° |
| 2026-04-22 14:14 | 50.61765 | 5.75424 | 26825 ft | 438 kts | 221° |
| 2026-04-22 14:14 | 50.59473 | 5.72249 | 27238 ft | 440 kts | 223° |
| 2026-04-22 14:14 | 50.57374 | 5.68750 | 27632 ft | 441 kts | 231° |
| 2026-04-22 14:15 | 50.55424 | 5.65010 | 28022 ft | 443 kts | 232° |
| 2026-04-22 14:15 | 50.53464 | 5.61253 | 28422 ft | 445 kts | 232° |
| 2026-04-22 14:15 | 50.51495 | 5.57489 | 28817 ft | 447 kts | 232° |
| 2026-04-22 14:15 | 50.49513 | 5.53712 | 29208 ft | 448 kts | 232° |
| 2026-04-22 14:16 | 50.47526 | 5.49935 | 29618 ft | 450 kts | 232° |
| 2026-04-22 14:16 | 50.45527 | 5.46142 | 30002 ft | 451 kts | 232° |
| 2026-04-22 14:16 | 50.43520 | 5.42340 | 30370 ft | 453 kts | 232° |
| 2026-04-22 14:16 | 50.41501 | 5.38526 | 30691 ft | 455 kts | 232° |
| 2026-04-22 14:17 | 50.39468 | 5.34697 | 31005 ft | 458 kts | 232° |
| 2026-04-22 14:17 | 50.37431 | 5.30860 | 31301 ft | 460 kts | 233° |
| 2026-04-22 14:17 | 50.35387 | 5.27010 | 31712 ft | 459 kts | 233° |
| 2026-04-22 14:17 | 50.33350 | 5.23174 | 32151 ft | 458 kts | 233° |
| 2026-04-22 14:18 | 50.31316 | 5.19350 | 32590 ft | 457 kts | 233° |
| 2026-04-22 14:18 | 50.29285 | 5.15536 | 33021 ft | 456 kts | 233° |
| 2026-04-22 14:18 | 50.27262 | 5.11741 | 33493 ft | 454 kts | 233° |
| 2026-04-22 14:18 | 50.25236 | 5.07962 | 33951 ft | 453 kts | 232° |
| 2026-04-22 14:19 | 50.22917 | 5.04621 | 34337 ft | 457 kts | 217° |
| 2026-04-22 14:19 | 50.20090 | 5.02320 | 34699 ft | 461 kts | 203° |
| 2026-04-22 14:19 | 50.17090 | 5.00571 | 35026 ft | 461 kts | 202° |
| 2026-04-22 14:19 | 50.14081 | 4.98852 | 35346 ft | 461 kts | 202° |
| 2026-04-22 14:20 | 50.08054 | 4.95444 | 35935 ft | 461 kts | 202° |
| 2026-04-22 14:20 | 50.05045 | 4.93737 | 36237 ft | 460 kts | 202° |
| 2026-04-22 14:20 | 50.02040 | 4.92031 | 36525 ft | 460 kts | 202° |
| 2026-04-22 14:21 | 49.96027 | 4.88616 | 37068 ft | 460 kts | 202° |
| 2026-04-22 14:21 | 49.93018 | 4.86912 | 37239 ft | 461 kts | 202° |
| 2026-04-22 14:22 | 49.86925 | 4.83450 | 37267 ft | 472 kts | 202° |
| 2026-04-22 14:22 | 49.83820 | 4.81689 | 37278 ft | 478 kts | 202° |
| 2026-04-22 14:23 | 49.74379 | 4.76379 | 37262 ft | 487 kts | 202° |
| 2026-04-22 14:23 | 49.67999 | 4.72826 | 37258 ft | 488 kts | 202° |
| 2026-04-22 14:24 | 49.61620 | 4.69264 | 37265 ft | 488 kts | 202° |
| 2026-04-22 14:24 | 49.55238 | 4.65697 | 37254 ft | 488 kts | 203° |
| 2026-04-22 14:25 | 49.48847 | 4.62140 | 37252 ft | 489 kts | 202° |
| 2026-04-22 14:25 | 49.42451 | 4.58598 | 37249 ft | 489 kts | 203° |
| 2026-04-22 14:26 | 49.36044 | 4.55050 | 37256 ft | 489 kts | 203° |
| 2026-04-22 14:26 | 49.29640 | 4.51516 | 37262 ft | 489 kts | 203° |
| 2026-04-22 14:27 | 49.23232 | 4.48003 | 37259 ft | 489 kts | 203° |
| 2026-04-22 14:27 | 49.16816 | 4.44491 | 37258 ft | 489 kts | 204° |
| 2026-04-22 14:28 | 49.10406 | 4.40981 | 37259 ft | 489 kts | 204° |
| 2026-04-22 14:28 | 49.03997 | 4.37480 | 37250 ft | 489 kts | 204° |
| 2026-04-22 14:29 | 48.97590 | 4.34000 | 37237 ft | 489 kts | 204° |
| 2026-04-22 14:29 | 48.91188 | 4.30522 | 37243 ft | 488 kts | 204° |
| 2026-04-22 14:30 | 48.84788 | 4.27070 | 37243 ft | 488 kts | 204° |
| 2026-04-22 14:30 | 48.78392 | 4.23623 | 37241 ft | 487 kts | 204° |
| 2026-04-22 14:31 | 48.72003 | 4.20189 | 37240 ft | 487 kts | 204° |
| 2026-04-22 14:31 | 48.66696 | 4.17332 | 37239 ft | 487 kts | 204° |
| 2026-04-22 14:32 | 48.60308 | 4.13909 | 37237 ft | 487 kts | 204° |
| 2026-04-22 14:32 | 48.53920 | 4.10497 | 37222 ft | 487 kts | 204° |
| 2026-04-22 14:33 | 48.47532 | 4.07098 | 37214 ft | 487 kts | 204° |
| 2026-04-22 14:33 | 48.41148 | 4.03709 | 37217 ft | 487 kts | 204° |
| 2026-04-22 14:34 | 48.34756 | 4.00332 | 37207 ft | 486 kts | 204° |
| 2026-04-22 14:34 | 48.28373 | 3.96958 | 37214 ft | 486 kts | 204° |
| 2026-04-22 14:35 | 48.21995 | 3.93590 | 37216 ft | 486 kts | 204° |
| 2026-04-22 14:35 | 48.15611 | 3.90236 | 37198 ft | 486 kts | 204° |
| 2026-04-22 14:36 | 48.09231 | 3.86898 | 37202 ft | 486 kts | 204° |
| 2026-04-22 14:36 | 48.02850 | 3.83562 | 37197 ft | 486 kts | 204° |
| 2026-04-22 14:37 | 47.96468 | 3.80236 | 37186 ft | 486 kts | 204° |
| 2026-04-22 14:37 | 47.90085 | 3.76915 | 37175 ft | 485 kts | 204° |
| 2026-04-22 14:38 | 47.83754 | 3.73639 | 37179 ft | 485 kts | 204° |
| 2026-04-22 14:38 | 47.77379 | 3.70339 | 37173 ft | 485 kts | 204° |
| 2026-04-22 14:39 | 47.71010 | 3.67045 | 37165 ft | 484 kts | 204° |
| 2026-04-22 14:39 | 47.64644 | 3.63774 | 37172 ft | 484 kts | 204° |
| 2026-04-22 14:40 | 47.55103 | 3.58889 | 37168 ft | 483 kts | 204° |
| 2026-04-22 14:40 | 47.48751 | 3.55643 | 37159 ft | 483 kts | 204° |
| 2026-04-22 14:41 | 47.42406 | 3.52406 | 37166 ft | 482 kts | 204° |
| 2026-04-22 14:41 | 47.36071 | 3.49183 | 37160 ft | 481 kts | 204° |
| 2026-04-22 14:42 | 47.29739 | 3.45979 | 37146 ft | 481 kts | 204° |
| 2026-04-22 14:42 | 47.23417 | 3.42780 | 37150 ft | 480 kts | 204° |
| 2026-04-22 14:43 | 47.17101 | 3.39587 | 37150 ft | 480 kts | 204° |
| 2026-04-22 14:43 | 47.10783 | 3.36397 | 37140 ft | 480 kts | 204° |
| 2026-04-22 14:44 | 47.04462 | 3.33227 | 37136 ft | 480 kts | 204° |
| 2026-04-22 14:44 | 46.98142 | 3.30071 | 37136 ft | 480 kts | 204° |
| 2026-04-22 14:45 | 46.91826 | 3.26908 | 37092 ft | 480 kts | 204° |
| 2026-04-22 14:45 | 46.85499 | 3.23750 | 37111 ft | 480 kts | 204° |
| 2026-04-22 14:46 | 46.79212 | 3.20621 | 37125 ft | 481 kts | 204° |
| 2026-04-22 14:46 | 46.72876 | 3.17487 | 37131 ft | 481 kts | 204° |
| 2026-04-22 14:47 | 46.66532 | 3.14348 | 37135 ft | 481 kts | 204° |
| 2026-04-22 14:47 | 46.60194 | 3.11218 | 37132 ft | 481 kts | 204° |
| 2026-04-22 14:48 | 46.53847 | 3.08085 | 37132 ft | 481 kts | 204° |
| 2026-04-22 14:48 | 46.47501 | 3.04965 | 37123 ft | 481 kts | 204° |
| 2026-04-22 14:49 | 46.44255 | 3.03697 | 37121 ft | 488 kts | 192° |
| 2026-04-22 14:49 | 46.40864 | 3.03198 | 37125 ft | 491 kts | 189° |
| 2026-04-22 14:49 | 46.34057 | 3.02358 | 37119 ft | 491 kts | 189° |
| 2026-04-22 14:50 | 46.27245 | 3.01559 | 37113 ft | 491 kts | 189° |
| 2026-04-22 14:50 | 46.20438 | 3.00763 | 37116 ft | 491 kts | 189° |
| 2026-04-22 14:51 | 46.13635 | 2.99951 | 37116 ft | 490 kts | 189° |
| 2026-04-22 14:51 | 46.06838 | 2.99139 | 37112 ft | 490 kts | 189° |
| 2026-04-22 14:52 | 46.00106 | 2.98331 | 37122 ft | 489 kts | 189° |
| 2026-04-22 14:52 | 45.93310 | 2.97522 | 37131 ft | 489 kts | 189° |
| 2026-04-22 14:53 | 45.86529 | 2.96718 | 37130 ft | 489 kts | 189° |
| 2026-04-22 14:53 | 45.79755 | 2.95922 | 37133 ft | 489 kts | 188° |
| 2026-04-22 14:54 | 45.72978 | 2.95156 | 37114 ft | 489 kts | 187° |
| 2026-04-22 14:54 | 45.66165 | 2.94833 | 37103 ft | 490 kts | 184° |
| 2026-04-22 14:55 | 45.59339 | 2.94805 | 37104 ft | 490 kts | 184° |
| 2026-04-22 14:55 | 45.52514 | 2.94721 | 37095 ft | 490 kts | 185° |
| 2026-04-22 14:56 | 45.45699 | 2.94535 | 37103 ft | 490 kts | 185° |
| 2026-04-22 14:56 | 45.38885 | 2.94328 | 37105 ft | 490 kts | 185° |
| 2026-04-22 14:57 | 45.32074 | 2.94149 | 37105 ft | 490 kts | 185° |
| 2026-04-22 14:57 | 45.25262 | 2.93979 | 37109 ft | 490 kts | 185° |
| 2026-04-22 14:58 | 45.18451 | 2.93805 | 37117 ft | 490 kts | 185° |
| 2026-04-22 14:58 | 45.11639 | 2.93624 | 37104 ft | 489 kts | 185° |
| 2026-04-22 14:59 | 45.04874 | 2.93448 | 37112 ft | 489 kts | 185° |
| 2026-04-22 14:59 | 44.98065 | 2.93268 | 37116 ft | 489 kts | 185° |
| 2026-04-22 15:00 | 44.91254 | 2.93085 | 37113 ft | 490 kts | 185° |
| 2026-04-22 15:00 | 44.84443 | 2.92915 | 37118 ft | 489 kts | 185° |
| 2026-04-22 15:01 | 44.77654 | 2.92536 | 37116 ft | 488 kts | 187° |
| 2026-04-22 15:01 | 44.70881 | 2.91954 | 37112 ft | 488 kts | 187° |
| 2026-04-22 15:02 | 44.64105 | 2.91380 | 37113 ft | 488 kts | 187° |
| 2026-04-22 15:02 | 44.57326 | 2.90884 | 37093 ft | 488 kts | 186° |
| 2026-04-22 15:03 | 44.50550 | 2.90420 | 37110 ft | 487 kts | 186° |
| 2026-04-22 15:03 | 44.43779 | 2.89941 | 37110 ft | 487 kts | 187° |
| 2026-04-22 15:04 | 44.37013 | 2.89441 | 37102 ft | 487 kts | 187° |
| 2026-04-22 15:04 | 44.30250 | 2.88949 | 37108 ft | 486 kts | 187° |
| 2026-04-22 15:05 | 44.23494 | 2.88463 | 37112 ft | 486 kts | 187° |
| 2026-04-22 15:05 | 44.16737 | 2.87971 | 37098 ft | 486 kts | 187° |
| 2026-04-22 15:06 | 44.09985 | 2.87482 | 37110 ft | 485 kts | 187° |
| 2026-04-22 15:06 | 44.03242 | 2.87007 | 37116 ft | 485 kts | 186° |
| 2026-04-22 15:07 | 43.96496 | 2.86528 | 37102 ft | 485 kts | 186° |
| 2026-04-22 15:07 | 43.89760 | 2.86052 | 37118 ft | 485 kts | 186° |
| 2026-04-22 15:08 | 43.83027 | 2.85574 | 37117 ft | 484 kts | 186° |
| 2026-04-22 15:08 | 43.76338 | 2.85144 | 37112 ft | 485 kts | 185° |
| 2026-04-22 15:09 | 43.69579 | 2.85139 | 37119 ft | 486 kts | 182° |
| 2026-04-22 15:09 | 43.62813 | 2.85390 | 37129 ft | 486 kts | 182° |
| 2026-04-22 15:10 | 43.56049 | 2.85591 | 37119 ft | 486 kts | 182° |
| 2026-04-22 15:10 | 43.49288 | 2.85681 | 37125 ft | 486 kts | 183° |
| 2026-04-22 15:11 | 43.42522 | 2.85745 | 37135 ft | 486 kts | 183° |
| 2026-04-22 15:11 | 43.35756 | 2.85825 | 37118 ft | 486 kts | 182° |
| 2026-04-22 15:12 | 43.28989 | 2.85929 | 37130 ft | 486 kts | 182° |
| 2026-04-22 15:12 | 43.22222 | 2.86041 | 37125 ft | 486 kts | 182° |
| 2026-04-22 15:13 | 43.15453 | 2.86150 | 37121 ft | 487 kts | 182° |
| 2026-04-22 15:13 | 43.08683 | 2.86245 | 37111 ft | 486 kts | 182° |
| 2026-04-22 15:14 | 43.01915 | 2.86336 | 37106 ft | 486 kts | 182° |
| 2026-04-22 15:14 | 42.95187 | 2.86429 | 37090 ft | 487 kts | 182° |
| 2026-04-22 15:15 | 42.88420 | 2.86538 | 37102 ft | 487 kts | 182° |
| 2026-04-22 15:15 | 42.81644 | 2.86631 | 37108 ft | 487 kts | 182° |
| 2026-04-22 15:16 | 42.74938 | 2.86681 | 37110 ft | 486 kts | 186° |
| 2026-04-22 15:16 | 42.68226 | 2.85932 | 37108 ft | 483 kts | 188° |
| 2026-04-22 15:17 | 42.61526 | 2.85134 | 37105 ft | 484 kts | 188° |
| 2026-04-22 15:17 | 42.54817 | 2.84343 | 37092 ft | 484 kts | 188° |
| 2026-04-22 15:18 | 42.48110 | 2.83557 | 37084 ft | 484 kts | 188° |
| 2026-04-22 15:18 | 42.41404 | 2.82774 | 37076 ft | 484 kts | 188° |
| 2026-04-22 15:19 | 42.34697 | 2.81993 | 37066 ft | 484 kts | 188° |
| 2026-04-22 15:19 | 42.27998 | 2.81224 | 37065 ft | 484 kts | 188° |
| 2026-04-22 15:20 | 42.21285 | 2.80449 | 37066 ft | 484 kts | 188° |
| 2026-04-22 15:20 | 42.14579 | 2.79667 | 37049 ft | 484 kts | 188° |
| 2026-04-22 15:21 | 42.09007 | 2.79017 | 37051 ft | 484 kts | 188° |
| 2026-04-22 15:21 | 42.02300 | 2.78237 | 37055 ft | 484 kts | 188° |
| 2026-04-22 15:22 | 41.95589 | 2.77466 | 37055 ft | 484 kts | 188° |
| 2026-04-22 15:22 | 41.88878 | 2.76755 | 37047 ft | 483 kts | 187° |
| 2026-04-22 15:23 | 41.85562 | 2.76477 | 36917 ft | 472 kts | 186° |
| 2026-04-22 15:23 | 41.82318 | 2.76237 | 36649 ft | 463 kts | 186° |
| 2026-04-22 15:23 | 41.79120 | 2.76004 | 36387 ft | 458 kts | 186° |
| 2026-04-22 15:23 | 41.75946 | 2.75765 | 36129 ft | 456 kts | 186° |
| 2026-04-22 15:24 | 41.72793 | 2.75515 | 35867 ft | 453 kts | 187° |
| 2026-04-22 15:24 | 41.69652 | 2.75255 | 35608 ft | 451 kts | 187° |
| 2026-04-22 15:24 | 41.66527 | 2.75007 | 35372 ft | 449 kts | 186° |
| 2026-04-22 15:24 | 41.63405 | 2.74832 | 35116 ft | 448 kts | 185° |
| 2026-04-22 15:25 | 41.60298 | 2.74715 | 34871 ft | 446 kts | 185° |
| 2026-04-22 15:25 | 41.57201 | 2.74623 | 34628 ft | 444 kts | 184° |
| 2026-04-22 15:25 | 41.54114 | 2.74533 | 34388 ft | 442 kts | 185° |
| 2026-04-22 15:25 | 41.51043 | 2.74431 | 34143 ft | 441 kts | 185° |
| 2026-04-22 15:26 | 41.47981 | 2.74314 | 33877 ft | 440 kts | 185° |
| 2026-04-22 15:26 | 41.44931 | 2.74187 | 33615 ft | 438 kts | 185° |
| 2026-04-22 15:26 | 41.41897 | 2.74055 | 33350 ft | 435 kts | 185° |
| 2026-04-22 15:26 | 41.38879 | 2.73920 | 33082 ft | 433 kts | 185° |
| 2026-04-22 15:27 | 41.35874 | 2.73789 | 32816 ft | 431 kts | 185° |
| 2026-04-22 15:27 | 41.32921 | 2.73663 | 32556 ft | 429 kts | 185° |
| 2026-04-22 15:27 | 41.29947 | 2.73539 | 32284 ft | 426 kts | 185° |
| 2026-04-22 15:27 | 41.26994 | 2.73419 | 32029 ft | 424 kts | 185° |
| 2026-04-22 15:28 | 41.24056 | 2.73298 | 31770 ft | 421 kts | 185° |
| 2026-04-22 15:28 | 41.21133 | 2.73178 | 31528 ft | 418 kts | 185° |
| 2026-04-22 15:28 | 41.18241 | 2.73062 | 31156 ft | 414 kts | 185° |
| 2026-04-22 15:28 | 41.15370 | 2.72945 | 30730 ft | 412 kts | 185° |
| 2026-04-22 15:29 | 41.12508 | 2.72831 | 30306 ft | 410 kts | 185° |
| 2026-04-22 15:29 | 41.09662 | 2.72713 | 29855 ft | 408 kts | 185° |
| 2026-04-22 15:29 | 41.06831 | 2.72593 | 29452 ft | 405 kts | 185° |
| 2026-04-22 15:30 | 41.01250 | 2.72364 | 28664 ft | 399 kts | 185° |
| 2026-04-22 15:30 | 40.98488 | 2.72251 | 28288 ft | 396 kts | 185° |
| 2026-04-22 15:30 | 40.95771 | 2.72143 | 27901 ft | 394 kts | 185° |
| 2026-04-22 15:30 | 40.93038 | 2.72033 | 27519 ft | 392 kts | 185° |
| 2026-04-22 15:31 | 40.90318 | 2.71922 | 27125 ft | 390 kts | 185° |
| 2026-04-22 15:31 | 40.87611 | 2.71809 | 26718 ft | 388 kts | 185° |
| 2026-04-22 15:31 | 40.84918 | 2.71697 | 26329 ft | 386 kts | 185° |
| 2026-04-22 15:31 | 40.82240 | 2.71586 | 25921 ft | 385 kts | 185° |
| 2026-04-22 15:32 | 40.79566 | 2.71474 | 25514 ft | 383 kts | 185° |
| 2026-04-22 15:32 | 40.76910 | 2.71364 | 25095 ft | 382 kts | 185° |
| 2026-04-22 15:32 | 40.74258 | 2.71256 | 24678 ft | 381 kts | 185° |
| 2026-04-22 15:32 | 40.71611 | 2.71148 | 24248 ft | 380 kts | 185° |
| 2026-04-22 15:33 | 40.68967 | 2.71039 | 23811 ft | 379 kts | 185° |
| 2026-04-22 15:33 | 40.66331 | 2.70931 | 23346 ft | 379 kts | 185° |
| 2026-04-22 15:33 | 40.63708 | 2.70827 | 22902 ft | 376 kts | 185° |
| 2026-04-22 15:33 | 40.61105 | 2.70724 | 22477 ft | 373 kts | 185° |
| 2026-04-22 15:34 | 40.58523 | 2.70622 | 22038 ft | 370 kts | 185° |
| 2026-04-22 15:34 | 40.55964 | 2.70519 | 21615 ft | 367 kts | 185° |
| 2026-04-22 15:34 | 40.53423 | 2.70412 | 21187 ft | 364 kts | 185° |
| 2026-04-22 15:34 | 40.50897 | 2.70596 | 20761 ft | 366 kts | 174° |
| 2026-04-22 15:35 | 40.48440 | 2.71496 | 20340 ft | 368 kts | 160° |
| 2026-04-22 15:35 | 40.46153 | 2.73029 | 19891 ft | 369 kts | 154° |
| 2026-04-22 15:35 | 40.43911 | 2.74663 | 19455 ft | 368 kts | 154° |
| 2026-04-22 15:35 | 40.41682 | 2.76284 | 19036 ft | 366 kts | 154° |
| 2026-04-22 15:36 | 40.39456 | 2.77901 | 18608 ft | 365 kts | 154° |
| 2026-04-22 15:36 | 40.37236 | 2.79511 | 18154 ft | 364 kts | 154° |
| 2026-04-22 15:36 | 40.35026 | 2.81108 | 17701 ft | 362 kts | 154° |
| 2026-04-22 15:36 | 40.32832 | 2.82695 | 17273 ft | 359 kts | 154° |
| 2026-04-22 15:37 | 40.30656 | 2.84268 | 16849 ft | 356 kts | 154° |
| 2026-04-22 15:37 | 40.28491 | 2.85829 | 16433 ft | 354 kts | 154° |
| 2026-04-22 15:37 | 40.26337 | 2.87377 | 16012 ft | 352 kts | 154° |
| 2026-04-22 15:37 | 40.24198 | 2.88910 | 15609 ft | 350 kts | 154° |
| 2026-04-22 15:38 | 40.22065 | 2.90440 | 15202 ft | 348 kts | 154° |
| 2026-04-22 15:38 | 40.17909 | 2.93436 | 14697 ft | 336 kts | 154° |
| 2026-04-22 15:38 | 40.15874 | 2.94904 | 14224 ft | 332 kts | 154° |
| 2026-04-22 15:39 | 40.13858 | 2.96354 | 13643 ft | 327 kts | 154° |
| 2026-04-22 15:39 | 40.11901 | 2.97761 | 13250 ft | 315 kts | 154° |
| 2026-04-22 15:39 | 40.09999 | 2.99130 | 12892 ft | 312 kts | 154° |
| 2026-04-22 15:39 | 40.08096 | 3.00493 | 12534 ft | 312 kts | 154° |
| 2026-04-22 15:40 | 40.06195 | 3.01856 | 12170 ft | 311 kts | 154° |
| 2026-04-22 15:40 | 40.04299 | 3.03216 | 11807 ft | 311 kts | 154° |
| 2026-04-22 15:40 | 40.02402 | 3.04571 | 11446 ft | 311 kts | 154° |
| 2026-04-22 15:40 | 40.00507 | 3.05921 | 11083 ft | 311 kts | 153° |
| 2026-04-22 15:41 | 39.98608 | 3.07274 | 10712 ft | 311 kts | 153° |
| 2026-04-22 15:41 | 39.96712 | 3.08624 | 10353 ft | 311 kts | 152° |
| 2026-04-22 15:41 | 39.94837 | 3.09953 | 9988 ft | 311 kts | 154° |
| 2026-04-22 15:41 | 39.92819 | 3.10919 | 9606 ft | 309 kts | 169° |
| 2026-04-22 15:42 | 39.90696 | 3.11177 | 9247 ft | 305 kts | 185° |
| 2026-04-22 15:42 | 39.88597 | 3.10928 | 8879 ft | 303 kts | 188° |
| 2026-04-22 15:42 | 39.86509 | 3.10663 | 8537 ft | 301 kts | 188° |
| 2026-04-22 15:42 | 39.84426 | 3.10405 | 8147 ft | 301 kts | 187° |
| 2026-04-22 15:43 | 39.82339 | 3.10150 | 7767 ft | 301 kts | 187° |
| 2026-04-22 15:43 | 39.80260 | 3.09899 | 7401 ft | 300 kts | 187° |
| 2026-04-22 15:43 | 39.78173 | 3.09646 | 6977 ft | 302 kts | 187° |
| 2026-04-22 15:43 | 39.76091 | 3.09392 | 6630 ft | 300 kts | 187° |
| 2026-04-22 15:44 | 39.74016 | 3.09137 | 6256 ft | 299 kts | 187° |
| 2026-04-22 15:44 | 39.71975 | 3.08683 | 5859 ft | 297 kts | 202° |
| 2026-04-22 15:44 | 39.70276 | 3.07252 | 5490 ft | 291 kts | 228° |
| 2026-04-22 15:44 | 39.69128 | 3.05112 | 5115 ft | 289 kts | 239° |
| 2026-04-22 15:45 | 39.68086 | 3.02877 | 4645 ft | 291 kts | 240° |
| 2026-04-22 15:45 | 39.67057 | 3.00651 | 4236 ft | 282 kts | 240° |
| 2026-04-22 15:45 | 39.66064 | 2.98532 | 3877 ft | 268 kts | 239° |
| 2026-04-22 15:45 | 39.65113 | 2.96506 | 3534 ft | 258 kts | 240° |
| 2026-04-22 15:46 | 39.64200 | 2.94563 | 3210 ft | 247 kts | 240° |
| 2026-04-22 15:46 | 39.63327 | 2.92704 | 2893 ft | 236 kts | 239° |
| 2026-04-22 15:46 | 39.62489 | 2.90921 | 2587 ft | 227 kts | 239° |
| 2026-04-22 15:46 | 39.61691 | 2.89222 | 2286 ft | 212 kts | 239° |
| 2026-04-22 15:47 | 39.60957 | 2.87662 | 2041 ft | 196 kts | 239° |
| 2026-04-22 15:47 | 39.60277 | 2.86217 | 1767 ft | 179 kts | 239° |
| 2026-04-22 15:47 | 39.59675 | 2.84938 | 1549 ft | 155 kts | 239° |
| 2026-04-22 15:47 | 39.59131 | 2.83784 | 1350 ft | 146 kts | 238° |
| 2026-04-22 15:48 | 39.58611 | 2.82683 | 1174 ft | 142 kts | 238° |
| 2026-04-22 15:48 | 39.58099 | 2.81607 | 993 ft | 139 kts | 238° |
| 2026-04-22 15:48 | 39.57594 | 2.80552 | 829 ft | 136 kts | 238° |
| 2026-04-22 15:48 | 39.57109 | 2.79523 | 680 ft | 134 kts | 238° |
| 2026-04-22 15:49 | 39.56634 | 2.78493 | 479 ft | 133 kts | 240° |
| 2026-04-22 15:49 | 39.56156 | 2.77481 | 307 ft | 131 kts | 238° |
| 2026-04-22 15:49 | 39.55681 | 2.76476 | 142 ft | 130 kts | 239° |
| 2026-04-22 15:49 | 39.55214 | 2.75485 | 51 ft | 122 kts | 239° |
| 2026-04-22 15:50 | 39.54866 | 2.74736 | 38 ft | 66 kts | 238° |
| 2026-04-22 15:50 | 39.54720 | 2.74428 | 38 ft | 37 kts | 238° |
| 2026-04-22 15:50 | 39.54576 | 2.74111 | 38 ft | 31 kts | 243° |
| 2026-04-22 15:50 | 39.54553 | 2.73907 | 38 ft | 17 kts | 268° |
| 2026-04-22 15:51 | 39.54551 | 2.73856 | 38 ft | 0 kts | 268° |
| 2026-04-22 15:52 | 39.54550 | 2.73800 | 38 ft | 13 kts | 268° |
| 2026-04-22 15:52 | 39.54571 | 2.73674 | 37 ft | 16 kts | 301° |
| 2026-04-22 15:53 | 39.54662 | 2.73679 | 38 ft | 17 kts | 53° |
| 2026-04-22 15:53 | 39.54729 | 2.73819 | 38 ft | 20 kts | 58° |
| 2026-04-22 15:53 | 39.54796 | 2.73955 | 38 ft | 12 kts | 56° |
| 2026-04-22 15:53 | 39.54842 | 2.73990 | 38 ft | 5 kts | 351° |
| 2026-04-22 15:54 | 39.54853 | 2.73940 | 38 ft | 8 kts | 269° |
| 2026-04-22 15:54 | 39.54852 | 2.73863 | 38 ft | 7 kts | 268° |
| 2026-04-22 15:54 | 39.54852 | 2.73838 | 38 ft | 0 kts | 268° |